sensor_id;sensor_type;location;lat;lon;timestamp;temperature;humidity
488;DHT22;16586;48.976;9.584;2022-11-03T00:01:05;8.70;56.50
488;DHT22;16586;48.976;9.584;2022-11-03T00:03:34;8.80;56.30
488;DHT22;16586;48.976;9.584;2022-11-03T00:06:00;8.70;56.10
488;DHT22;16586;48.976;9.584;2022-11-03T00:08:30;8.70;56.00
488;DHT22;16586;48.976;9.584;2022-11-03T00:11:01;8.70;55.90
488;DHT22;16586;48.976;9.584;2022-11-03T00:13:28;8.70;55.90
488;DHT22;16586;48.976;9.584;2022-11-03T00:15:55;8.70;55.70
488;DHT22;16586;48.976;9.584;2022-11-03T00:18:22;8.70;55.80
488;DHT22;16586;48.976;9.584;2022-11-03T00:20:56;8.60;55.60
488;DHT22;16586;48.976;9.584;2022-11-03T00:23:25;8.60;56.10
488;DHT22;16586;48.976;9.584;2022-11-03T00:25:52;8.60;56.30
488;DHT22;16586;48.976;9.584;2022-11-03T00:28:19;8.60;56.50
488;DHT22;16586;48.976;9.584;2022-11-03T00:30:45;8.60;56.50
488;DHT22;16586;48.976;9.584;2022-11-03T00:33:12;8.60;56.70
488;DHT22;16586;48.976;9.584;2022-11-03T00:35:39;8.60;56.80
488;DHT22;16586;48.976;9.584;2022-11-03T00:38:07;8.60;56.80
488;DHT22;16586;48.976;9.584;2022-11-03T00:40:34;8.60;56.90
488;DHT22;16586;48.976;9.584;2022-11-03T00:43:01;8.60;57.00
488;DHT22;16586;48.976;9.584;2022-11-03T00:45:28;8.60;57.30
488;DHT22;16586;48.976;9.584;2022-11-03T00:47:55;8.60;57.40
488;DHT22;16586;48.976;9.584;2022-11-03T00:50:40;8.60;57.40
488;DHT22;16586;48.976;9.584;2022-11-03T00:53:08;8.70;57.50
488;DHT22;16586;48.976;9.584;2022-11-03T00:55:35;8.60;57.50
488;DHT22;16586;48.976;9.584;2022-11-03T00:58:02;8.60;57.50
488;DHT22;16586;48.976;9.584;2022-11-03T01:00:28;8.60;57.60
488;DHT22;16586;48.976;9.584;2022-11-03T01:02:55;8.60;57.60
488;DHT22;16586;48.976;9.584;2022-11-03T01:05:22;8.60;57.80
488;DHT22;16586;48.976;9.584;2022-11-03T01:08:08;8.60;57.70
488;DHT22;16586;48.976;9.584;2022-11-03T01:10:37;8.60;57.80
488;DHT22;16586;48.976;9.584;2022-11-03T01:13:27;8.60;57.90
488;DHT22;16586;48.976;9.584;2022-11-03T01:15:56;8.60;57.90
488;DHT22;16586;48.976;9.584;2022-11-03T01:18:23;8.60;57.80
488;DHT22;16586;48.976;9.584;2022-11-03T01:20:53;8.50;58.00
488;DHT22;16586;48.976;9.584;2022-11-03T01:23:22;8.60;58.10
488;DHT22;16586;48.976;9.584;2022-11-03T01:25:49;8.50;57.60
488;DHT22;16586;48.976;9.584;2022-11-03T01:28:16;8.50;57.50
488;DHT22;16586;48.976;9.584;2022-11-03T01:30:43;8.60;57.30
488;DHT22;16586;48.976;9.584;2022-11-03T01:33:09;8.50;57.10
488;DHT22;16586;48.976;9.584;2022-11-03T01:35:36;8.50;57.10
488;DHT22;16586;48.976;9.584;2022-11-03T01:38:03;8.50;56.90
488;DHT22;16586;48.976;9.584;2022-11-03T01:40:31;8.40;56.50
488;DHT22;16586;48.976;9.584;2022-11-03T01:43:13;8.50;56.30
488;DHT22;16586;48.976;9.584;2022-11-03T01:45:40;8.40;56.10
488;DHT22;16586;48.976;9.584;2022-11-03T01:48:07;8.40;56.10
488;DHT22;16586;48.976;9.584;2022-11-03T01:50:35;8.30;56.00
488;DHT22;16586;48.976;9.584;2022-11-03T01:53:01;8.30;56.10
488;DHT22;16586;48.976;9.584;2022-11-03T01:55:33;8.30;56.20
488;DHT22;16586;48.976;9.584;2022-11-03T01:58:04;8.30;56.20
488;DHT22;16586;48.976;9.584;2022-11-03T02:00:31;8.30;56.20
488;DHT22;16586;48.976;9.584;2022-11-03T02:02:59;8.30;56.10
488;DHT22;16586;48.976;9.584;2022-11-03T02:05:26;8.20;56.10
488;DHT22;16586;48.976;9.584;2022-11-03T02:07:58;8.20;56.30
488;DHT22;16586;48.976;9.584;2022-11-03T02:10:25;8.20;56.60
488;DHT22;16586;48.976;9.584;2022-11-03T02:12:53;8.20;56.70
488;DHT22;16586;48.976;9.584;2022-11-03T02:15:21;8.20;56.60
488;DHT22;16586;48.976;9.584;2022-11-03T02:17:50;8.20;56.70
488;DHT22;16586;48.976;9.584;2022-11-03T02:20:20;8.10;56.60
488;DHT22;16586;48.976;9.584;2022-11-03T02:23:01;8.10;56.80
488;DHT22;16586;48.976;9.584;2022-11-03T02:25:35;8.10;56.90
488;DHT22;16586;48.976;9.584;2022-11-03T02:28:03;8.10;57.20
488;DHT22;16586;48.976;9.584;2022-11-03T02:30:34;8.10;57.20
488;DHT22;16586;48.976;9.584;2022-11-03T02:33:10;8.10;56.80
488;DHT22;16586;48.976;9.584;2022-11-03T02:35:43;8.10;56.40
488;DHT22;16586;48.976;9.584;2022-11-03T02:38:13;8.10;56.20
488;DHT22;16586;48.976;9.584;2022-11-03T02:40:45;8.00;56.30
488;DHT22;16586;48.976;9.584;2022-11-03T02:43:14;8.00;57.10
488;DHT22;16586;48.976;9.584;2022-11-03T02:45:44;8.00;56.60
488;DHT22;16586;48.976;9.584;2022-11-03T02:48:14;7.90;56.20
488;DHT22;16586;48.976;9.584;2022-11-03T02:50:41;7.90;56.20
488;DHT22;16586;48.976;9.584;2022-11-03T02:53:10;7.80;55.90
488;DHT22;16586;48.976;9.584;2022-11-03T02:55:40;7.80;55.90
488;DHT22;16586;48.976;9.584;2022-11-03T02:58:15;7.80;55.80
488;DHT22;16586;48.976;9.584;2022-11-03T03:00:52;7.80;55.70
488;DHT22;16586;48.976;9.584;2022-11-03T03:03:24;7.70;55.60
488;DHT22;16586;48.976;9.584;2022-11-03T03:05:56;7.70;55.50
488;DHT22;16586;48.976;9.584;2022-11-03T03:08:26;7.70;55.40
488;DHT22;16586;48.976;9.584;2022-11-03T03:10:54;7.70;55.50
488;DHT22;16586;48.976;9.584;2022-11-03T03:13:24;7.70;55.40
488;DHT22;16586;48.976;9.584;2022-11-03T03:16:00;7.70;55.40
488;DHT22;16586;48.976;9.584;2022-11-03T03:18:39;7.60;55.30
488;DHT22;16586;48.976;9.584;2022-11-03T03:21:14;7.60;55.40
488;DHT22;16586;48.976;9.584;2022-11-03T03:23:44;7.60;55.50
488;DHT22;16586;48.976;9.584;2022-11-03T03:26:19;7.50;55.40
488;DHT22;16586;48.976;9.584;2022-11-03T03:28:52;7.50;55.50
488;DHT22;16586;48.976;9.584;2022-11-03T03:31:21;7.50;55.60
488;DHT22;16586;48.976;9.584;2022-11-03T03:33:52;7.60;55.60
488;DHT22;16586;48.976;9.584;2022-11-03T03:36:21;7.50;55.50
488;DHT22;16586;48.976;9.584;2022-11-03T03:38:52;7.50;55.40
488;DHT22;16586;48.976;9.584;2022-11-03T03:41:21;7.50;55.30
488;DHT22;16586;48.976;9.584;2022-11-03T03:43:54;7.50;55.30
488;DHT22;16586;48.976;9.584;2022-11-03T03:46:25;7.50;55.30
488;DHT22;16586;48.976;9.584;2022-11-03T03:48:53;7.40;55.10
488;DHT22;16586;48.976;9.584;2022-11-03T03:51:23;7.40;55.20
488;DHT22;16586;48.976;9.584;2022-11-03T03:53:51;7.40;55.30
488;DHT22;16586;48.976;9.584;2022-11-03T03:56:22;7.40;55.40
488;DHT22;16586;48.976;9.584;2022-11-03T03:58:52;7.30;55.30
488;DHT22;16586;48.976;9.584;2022-11-03T04:01:19;7.40;55.50
488;DHT22;16586;48.976;9.584;2022-11-03T04:03:45;7.30;55.60
488;DHT22;16586;48.976;9.584;2022-11-03T04:06:12;7.30;55.80
488;DHT22;16586;48.976;9.584;2022-11-03T04:08:39;7.40;56.00
488;DHT22;16586;48.976;9.584;2022-11-03T04:11:06;7.30;56.10
488;DHT22;16586;48.976;9.584;2022-11-03T04:13:51;7.40;56.30
488;DHT22;16586;48.976;9.584;2022-11-03T04:16:35;7.40;56.60
488;DHT22;16586;48.976;9.584;2022-11-03T04:19:19;7.40;57.10
488;DHT22;16586;48.976;9.584;2022-11-03T04:22:03;7.40;57.00
488;DHT22;16586;48.976;9.584;2022-11-03T04:24:42;7.50;57.10
488;DHT22;16586;48.976;9.584;2022-11-03T04:27:27;7.50;56.80
488;DHT22;16586;48.976;9.584;2022-11-03T04:29:58;7.50;56.70
488;DHT22;16586;48.976;9.584;2022-11-03T04:32:25;7.50;56.90
488;DHT22;16586;48.976;9.584;2022-11-03T04:34:53;7.50;57.00
488;DHT22;16586;48.976;9.584;2022-11-03T04:37:19;7.50;57.00
488;DHT22;16586;48.976;9.584;2022-11-03T04:39:46;7.50;56.90
488;DHT22;16586;48.976;9.584;2022-11-03T04:42:16;7.50;56.70
488;DHT22;16586;48.976;9.584;2022-11-03T04:44:43;7.50;56.60
488;DHT22;16586;48.976;9.584;2022-11-03T04:47:13;7.50;56.50
488;DHT22;16586;48.976;9.584;2022-11-03T04:49:41;7.50;56.40
488;DHT22;16586;48.976;9.584;2022-11-03T04:52:14;7.50;56.30
488;DHT22;16586;48.976;9.584;2022-11-03T04:54:42;7.50;56.30
488;DHT22;16586;48.976;9.584;2022-11-03T04:57:11;7.50;56.40
488;DHT22;16586;48.976;9.584;2022-11-03T04:59:39;7.50;56.30
488;DHT22;16586;48.976;9.584;2022-11-03T05:02:12;7.50;56.20
488;DHT22;16586;48.976;9.584;2022-11-03T05:04:39;7.40;56.10
488;DHT22;16586;48.976;9.584;2022-11-03T05:07:17;7.40;56.20
488;DHT22;16586;48.976;9.584;2022-11-03T05:09:47;7.40;56.20
488;DHT22;16586;48.976;9.584;2022-11-03T05:12:15;7.40;56.20
488;DHT22;16586;48.976;9.584;2022-11-03T05:14:42;7.40;56.10
488;DHT22;16586;48.976;9.584;2022-11-03T05:17:20;7.40;56.00
488;DHT22;16586;48.976;9.584;2022-11-03T05:19:48;7.30;55.90
488;DHT22;16586;48.976;9.584;2022-11-03T05:22:18;7.30;55.90
488;DHT22;16586;48.976;9.584;2022-11-03T05:24:45;7.30;56.00
488;DHT22;16586;48.976;9.584;2022-11-03T05:27:17;7.30;56.00
488;DHT22;16586;48.976;9.584;2022-11-03T05:29:45;7.30;56.10
488;DHT22;16586;48.976;9.584;2022-11-03T05:32:16;7.20;56.00
488;DHT22;16586;48.976;9.584;2022-11-03T05:34:45;7.20;56.10
488;DHT22;16586;48.976;9.584;2022-11-03T05:37:28;7.20;56.10
488;DHT22;16586;48.976;9.584;2022-11-03T05:39:57;7.20;56.20
488;DHT22;16586;48.976;9.584;2022-11-03T05:42:31;7.20;56.30
488;DHT22;16586;48.976;9.584;2022-11-03T05:45:00;7.20;56.30
488;DHT22;16586;48.976;9.584;2022-11-03T05:47:33;7.10;56.00
488;DHT22;16586;48.976;9.584;2022-11-03T05:50:12;7.20;56.10
488;DHT22;16586;48.976;9.584;2022-11-03T05:52:40;7.10;56.00
488;DHT22;16586;48.976;9.584;2022-11-03T05:55:18;7.10;56.00
488;DHT22;16586;48.976;9.584;2022-11-03T05:57:46;7.10;56.10
488;DHT22;16586;48.976;9.584;2022-11-03T06:00:24;7.10;56.10
488;DHT22;16586;48.976;9.584;2022-11-03T06:02:54;7.10;56.10
488;DHT22;16586;48.976;9.584;2022-11-03T06:05:22;7.10;56.20
488;DHT22;16586;48.976;9.584;2022-11-03T06:07:53;7.10;56.20
488;DHT22;16586;48.976;9.584;2022-11-03T06:10:24;7.10;56.80
488;DHT22;16586;48.976;9.584;2022-11-03T06:12:53;7.00;56.70
488;DHT22;16586;48.976;9.584;2022-11-03T06:15:28;7.10;57.80
488;DHT22;16586;48.976;9.584;2022-11-03T06:17:58;7.10;57.80
488;DHT22;16586;48.976;9.584;2022-11-03T06:20:26;7.20;57.90
488;DHT22;16586;48.976;9.584;2022-11-03T06:22:54;7.20;57.90
488;DHT22;16586;48.976;9.584;2022-11-03T06:25:26;7.20;57.90
488;DHT22;16586;48.976;9.584;2022-11-03T06:27:54;7.30;57.90
488;DHT22;16586;48.976;9.584;2022-11-03T06:30:25;7.20;57.90
488;DHT22;16586;48.976;9.584;2022-11-03T06:32:53;7.30;57.90
488;DHT22;16586;48.976;9.584;2022-11-03T06:35:22;7.20;57.90
488;DHT22;16586;48.976;9.584;2022-11-03T06:37:49;7.30;58.00
488;DHT22;16586;48.976;9.584;2022-11-03T06:40:31;7.30;58.20
488;DHT22;16586;48.976;9.584;2022-11-03T06:42:59;7.30;58.30
488;DHT22;16586;48.976;9.584;2022-11-03T06:45:26;7.40;58.90
488;DHT22;16586;48.976;9.584;2022-11-03T06:47:54;7.40;59.10
488;DHT22;16586;48.976;9.584;2022-11-03T06:50:24;7.50;58.90
488;DHT22;16586;48.976;9.584;2022-11-03T06:52:54;7.50;58.70
488;DHT22;16586;48.976;9.584;2022-11-03T06:55:23;7.50;58.30
488;DHT22;16586;48.976;9.584;2022-11-03T06:57:52;7.50;58.80
488;DHT22;16586;48.976;9.584;2022-11-03T07:00:22;7.50;58.10
488;DHT22;16586;48.976;9.584;2022-11-03T07:02:55;7.50;58.10
488;DHT22;16586;48.976;9.584;2022-11-03T07:05:26;7.50;58.10
488;DHT22;16586;48.976;9.584;2022-11-03T07:07:55;7.50;58.10
488;DHT22;16586;48.976;9.584;2022-11-03T07:10:24;7.60;58.20
488;DHT22;16586;48.976;9.584;2022-11-03T07:12:51;7.60;58.20
488;DHT22;16586;48.976;9.584;2022-11-03T07:15:23;7.60;58.50
488;DHT22;16586;48.976;9.584;2022-11-03T07:17:52;7.70;58.70
488;DHT22;16586;48.976;9.584;2022-11-03T07:20:19;7.70;59.20
488;DHT22;16586;48.976;9.584;2022-11-03T07:22:48;7.80;59.40
488;DHT22;16586;48.976;9.584;2022-11-03T07:25:17;7.80;59.30
488;DHT22;16586;48.976;9.584;2022-11-03T07:27:45;7.80;59.30
488;DHT22;16586;48.976;9.584;2022-11-03T07:30:18;7.90;59.20
488;DHT22;16586;48.976;9.584;2022-11-03T07:32:47;7.90;58.50
488;DHT22;16586;48.976;9.584;2022-11-03T07:35:25;8.00;58.50
488;DHT22;16586;48.976;9.584;2022-11-03T07:37:55;8.00;58.50
488;DHT22;16586;48.976;9.584;2022-11-03T07:40:24;8.00;58.50
488;DHT22;16586;48.976;9.584;2022-11-03T07:42:55;8.00;58.50
488;DHT22;16586;48.976;9.584;2022-11-03T07:45:36;8.10;58.60
488;DHT22;16586;48.976;9.584;2022-11-03T07:48:21;8.10;59.10
488;DHT22;16586;48.976;9.584;2022-11-03T07:50:51;8.20;59.30
488;DHT22;16586;48.976;9.584;2022-11-03T07:53:26;8.30;59.70
488;DHT22;16586;48.976;9.584;2022-11-03T07:55:55;8.40;59.60
488;DHT22;16586;48.976;9.584;2022-11-03T07:58:30;8.50;59.50
488;DHT22;16586;48.976;9.584;2022-11-03T08:00:58;8.60;59.20
488;DHT22;16586;48.976;9.584;2022-11-03T08:03:41;8.70;59.50
488;DHT22;16586;48.976;9.584;2022-11-03T08:06:08;8.80;59.50
488;DHT22;16586;48.976;9.584;2022-11-03T08:08:36;8.80;59.20
488;DHT22;16586;48.976;9.584;2022-11-03T08:11:04;8.90;59.30
488;DHT22;16586;48.976;9.584;2022-11-03T08:13:31;9.00;59.30
488;DHT22;16586;48.976;9.584;2022-11-03T08:15:58;9.10;59.40
488;DHT22;16586;48.976;9.584;2022-11-03T08:18:24;9.10;59.40
488;DHT22;16586;48.976;9.584;2022-11-03T08:20:51;9.30;59.60
488;DHT22;16586;48.976;9.584;2022-11-03T08:23:18;9.30;59.60
488;DHT22;16586;48.976;9.584;2022-11-03T08:25:46;9.40;59.70
488;DHT22;16586;48.976;9.584;2022-11-03T08:28:13;9.60;59.80
488;DHT22;16586;48.976;9.584;2022-11-03T08:30:40;9.60;59.80
488;DHT22;16586;48.976;9.584;2022-11-03T08:33:07;9.50;59.70
488;DHT22;16586;48.976;9.584;2022-11-03T08:35:34;9.60;59.80
488;DHT22;16586;48.976;9.584;2022-11-03T08:38:00;9.70;59.90
488;DHT22;16586;48.976;9.584;2022-11-03T08:40:27;9.80;60.00
488;DHT22;16586;48.976;9.584;2022-11-03T08:42:55;9.90;60.00
488;DHT22;16586;48.976;9.584;2022-11-03T08:45:22;10.00;59.10
488;DHT22;16586;48.976;9.584;2022-11-03T08:47:49;10.10;58.70
488;DHT22;16586;48.976;9.584;2022-11-03T08:50:16;10.20;58.70
488;DHT22;16586;48.976;9.584;2022-11-03T08:52:43;10.30;58.50
488;DHT22;16586;48.976;9.584;2022-11-03T08:55:09;10.40;58.40
488;DHT22;16586;48.976;9.584;2022-11-03T08:57:36;10.50;58.50
488;DHT22;16586;48.976;9.584;2022-11-03T09:00:05;10.50;58.50
488;DHT22;16586;48.976;9.584;2022-11-03T09:02:33;10.60;58.60
488;DHT22;16586;48.976;9.584;2022-11-03T09:05:00;10.70;58.50
488;DHT22;16586;48.976;9.584;2022-11-03T09:07:28;10.80;58.50
488;DHT22;16586;48.976;9.584;2022-11-03T09:09:54;10.90;58.50
488;DHT22;16586;48.976;9.584;2022-11-03T09:12:21;11.00;58.50
488;DHT22;16586;48.976;9.584;2022-11-03T09:14:48;11.00;58.50
488;DHT22;16586;48.976;9.584;2022-11-03T09:17:16;11.10;58.50
488;DHT22;16586;48.976;9.584;2022-11-03T09:19:43;11.20;58.50
488;DHT22;16586;48.976;9.584;2022-11-03T09:22:10;11.30;58.50
488;DHT22;16586;48.976;9.584;2022-11-03T09:24:37;11.40;58.50
488;DHT22;16586;48.976;9.584;2022-11-03T09:27:03;11.50;58.40
488;DHT22;16586;48.976;9.584;2022-11-03T09:29:30;11.50;58.20
488;DHT22;16586;48.976;9.584;2022-11-03T09:31:57;11.60;58.10
488;DHT22;16586;48.976;9.584;2022-11-03T09:34:25;11.60;58.00
488;DHT22;16586;48.976;9.584;2022-11-03T09:36:53;11.70;58.10
488;DHT22;16586;48.976;9.584;2022-11-03T09:39:20;11.70;58.20
488;DHT22;16586;48.976;9.584;2022-11-03T09:41:47;11.80;58.20
488;DHT22;16586;48.976;9.584;2022-11-03T09:44:14;11.90;58.60
488;DHT22;16586;48.976;9.584;2022-11-03T09:46:41;11.90;58.70
488;DHT22;16586;48.976;9.584;2022-11-03T09:49:12;12.10;58.80
488;DHT22;16586;48.976;9.584;2022-11-03T09:51:42;12.20;58.70
488;DHT22;16586;48.976;9.584;2022-11-03T09:54:12;12.30;58.80
488;DHT22;16586;48.976;9.584;2022-11-03T09:56:39;12.40;58.90
488;DHT22;16586;48.976;9.584;2022-11-03T09:59:13;12.50;59.00
488;DHT22;16586;48.976;9.584;2022-11-03T10:01:42;12.60;58.90
488;DHT22;16586;48.976;9.584;2022-11-03T10:04:10;12.70;59.00
488;DHT22;16586;48.976;9.584;2022-11-03T10:06:38;12.90;58.70
488;DHT22;16586;48.976;9.584;2022-11-03T10:09:09;13.10;58.70
488;DHT22;16586;48.976;9.584;2022-11-03T10:11:37;13.30;58.70
488;DHT22;16586;48.976;9.584;2022-11-03T10:14:04;13.50;58.80
488;DHT22;16586;48.976;9.584;2022-11-03T10:16:34;13.70;58.90
488;DHT22;16586;48.976;9.584;2022-11-03T10:19:01;13.90;58.70
488;DHT22;16586;48.976;9.584;2022-11-03T10:21:30;14.20;58.30
488;DHT22;16586;48.976;9.584;2022-11-03T10:23:58;14.50;58.20
488;DHT22;16586;48.976;9.584;2022-11-03T10:26:26;14.70;56.80
488;DHT22;16586;48.976;9.584;2022-11-03T10:29:01;14.80;56.40
488;DHT22;16586;48.976;9.584;2022-11-03T10:31:33;15.00;55.80
488;DHT22;16586;48.976;9.584;2022-11-03T10:34:00;15.10;55.40
488;DHT22;16586;48.976;9.584;2022-11-03T10:36:28;15.30;55.30
488;DHT22;16586;48.976;9.584;2022-11-03T10:38:55;15.40;55.40
488;DHT22;16586;48.976;9.584;2022-11-03T10:41:23;15.60;55.50
488;DHT22;16586;48.976;9.584;2022-11-03T10:44:03;15.80;54.00
488;DHT22;16586;48.976;9.584;2022-11-03T10:46:33;15.90;53.70
488;DHT22;16586;48.976;9.584;2022-11-03T10:49:04;16.00;53.30
488;DHT22;16586;48.976;9.584;2022-11-03T10:51:33;16.10;53.40
488;DHT22;16586;48.976;9.584;2022-11-03T10:54:00;16.20;53.40
488;DHT22;16586;48.976;9.584;2022-11-03T10:56:27;16.30;53.50
488;DHT22;16586;48.976;9.584;2022-11-03T10:58:54;16.40;53.10
488;DHT22;16586;48.976;9.584;2022-11-03T11:01:23;16.50;52.80
488;DHT22;16586;48.976;9.584;2022-11-03T11:03:50;16.60;52.30
488;DHT22;16586;48.976;9.584;2022-11-03T11:06:23;16.70;52.00
488;DHT22;16586;48.976;9.584;2022-11-03T11:08:51;16.80;52.10
488;DHT22;16586;48.976;9.584;2022-11-03T11:11:22;16.90;52.00
488;DHT22;16586;48.976;9.584;2022-11-03T11:14:19;17.00;51.70
488;DHT22;16586;48.976;9.584;2022-11-03T11:16:49;16.90;52.30
488;DHT22;16586;48.976;9.584;2022-11-03T11:19:16;17.00;51.90
488;DHT22;16586;48.976;9.584;2022-11-03T11:22:11;17.00;51.50
488;DHT22;16586;48.976;9.584;2022-11-03T11:25:01;17.00;51.20
488;DHT22;16586;48.976;9.584;2022-11-03T11:28:09;16.90;51.00
488;DHT22;16586;48.976;9.584;2022-11-03T11:31:00;16.90;51.00
488;DHT22;16586;48.976;9.584;2022-11-03T11:33:30;16.80;51.30
488;DHT22;16586;48.976;9.584;2022-11-03T11:39:09;16.80;51.80
488;DHT22;16586;48.976;9.584;2022-11-03T11:42:05;16.80;51.90
488;DHT22;16586;48.976;9.584;2022-11-03T11:44:57;16.80;51.70
488;DHT22;16586;48.976;9.584;2022-11-03T11:47:50;16.80;51.70
488;DHT22;16586;48.976;9.584;2022-11-03T11:50:27;16.80;51.90
488;DHT22;16586;48.976;9.584;2022-11-03T11:52:58;16.80;52.10
488;DHT22;16586;48.976;9.584;2022-11-03T11:55:30;16.80;52.20
488;DHT22;16586;48.976;9.584;2022-11-03T11:57:59;16.80;52.30
488;DHT22;16586;48.976;9.584;2022-11-03T12:00:29;16.80;52.40
488;DHT22;16586;48.976;9.584;2022-11-03T12:02:56;16.80;52.50
488;DHT22;16586;48.976;9.584;2022-11-03T12:05:29;16.80;52.30
488;DHT22;16586;48.976;9.584;2022-11-03T12:07:57;16.90;52.40
488;DHT22;16586;48.976;9.584;2022-11-03T12:10:26;16.90;52.40
488;DHT22;16586;48.976;9.584;2022-11-03T12:12:53;16.90;52.10
488;DHT22;16586;48.976;9.584;2022-11-03T12:15:49;16.80;52.20
488;DHT22;16586;48.976;9.584;2022-11-03T12:18:30;16.80;52.30
488;DHT22;16586;48.976;9.584;2022-11-03T12:20:58;16.80;52.40
488;DHT22;16586;48.976;9.584;2022-11-03T12:23:33;16.80;52.70
488;DHT22;16586;48.976;9.584;2022-11-03T12:26:00;16.80;53.00
488;DHT22;16586;48.976;9.584;2022-11-03T12:28:31;16.80;52.90
488;DHT22;16586;48.976;9.584;2022-11-03T12:30:58;16.90;52.90
488;DHT22;16586;48.976;9.584;2022-11-03T12:33:26;16.90;53.00
488;DHT22;16586;48.976;9.584;2022-11-03T12:35:53;16.90;52.90
488;DHT22;16586;48.976;9.584;2022-11-03T12:38:22;17.00;52.90
488;DHT22;16586;48.976;9.584;2022-11-03T12:40:49;17.00;52.80
488;DHT22;16586;48.976;9.584;2022-11-03T12:43:16;17.00;52.80
488;DHT22;16586;48.976;9.584;2022-11-03T12:45:42;17.00;52.50
488;DHT22;16586;48.976;9.584;2022-11-03T12:48:09;17.00;52.60
488;DHT22;16586;48.976;9.584;2022-11-03T12:50:36;17.00;52.80
488;DHT22;16586;48.976;9.584;2022-11-03T12:53:04;17.00;52.50
488;DHT22;16586;48.976;9.584;2022-11-03T12:55:33;16.90;52.50
488;DHT22;16586;48.976;9.584;2022-11-03T12:58:00;16.90;52.60
488;DHT22;16586;48.976;9.584;2022-11-03T13:00:27;16.80;52.50
488;DHT22;16586;48.976;9.584;2022-11-03T13:02:54;16.70;52.70
488;DHT22;16586;48.976;9.584;2022-11-03T13:05:21;16.60;52.70
488;DHT22;16586;48.976;9.584;2022-11-03T13:07:48;16.60;53.00
488;DHT22;16586;48.976;9.584;2022-11-03T13:10:14;16.50;53.10
488;DHT22;16586;48.976;9.584;2022-11-03T13:12:43;16.40;53.40
488;DHT22;16586;48.976;9.584;2022-11-03T13:15:11;16.30;53.60
488;DHT22;16586;48.976;9.584;2022-11-03T13:17:40;16.30;53.80
488;DHT22;16586;48.976;9.584;2022-11-03T13:20:08;16.30;54.00
488;DHT22;16586;48.976;9.584;2022-11-03T13:22:35;16.30;54.20
488;DHT22;16586;48.976;9.584;2022-11-03T13:25:04;16.20;54.30
488;DHT22;16586;48.976;9.584;2022-11-03T13:27:31;16.30;54.40
488;DHT22;16586;48.976;9.584;2022-11-03T13:29:59;16.20;54.60
488;DHT22;16586;48.976;9.584;2022-11-03T13:32:26;16.20;54.90
488;DHT22;16586;48.976;9.584;2022-11-03T13:34:53;16.20;55.20
488;DHT22;16586;48.976;9.584;2022-11-03T13:37:19;16.20;55.30
488;DHT22;16586;48.976;9.584;2022-11-03T13:39:46;16.10;55.40
488;DHT22;16586;48.976;9.584;2022-11-03T13:42:13;16.10;56.00
488;DHT22;16586;48.976;9.584;2022-11-03T13:44:40;16.10;55.60
488;DHT22;16586;48.976;9.584;2022-11-03T13:47:08;16.00;55.90
488;DHT22;16586;48.976;9.584;2022-11-03T13:49:35;16.00;55.90
488;DHT22;16586;48.976;9.584;2022-11-03T13:52:02;15.90;55.90
488;DHT22;16586;48.976;9.584;2022-11-03T13:54:29;15.90;55.90
488;DHT22;16586;48.976;9.584;2022-11-03T13:56:56;15.90;55.80
488;DHT22;16586;48.976;9.584;2022-11-03T13:59:22;15.80;55.80
488;DHT22;16586;48.976;9.584;2022-11-03T14:01:49;15.80;55.80
488;DHT22;16586;48.976;9.584;2022-11-03T14:04:17;15.80;55.80
488;DHT22;16586;48.976;9.584;2022-11-03T14:06:44;15.80;56.10
488;DHT22;16586;48.976;9.584;2022-11-03T14:09:11;15.70;56.40
488;DHT22;16586;48.976;9.584;2022-11-03T14:11:38;15.70;56.50
488;DHT22;16586;48.976;9.584;2022-11-03T14:14:22;15.70;56.60
488;DHT22;16586;48.976;9.584;2022-11-03T14:16:49;15.70;56.70
488;DHT22;16586;48.976;9.584;2022-11-03T14:19:17;15.60;56.90
488;DHT22;16586;48.976;9.584;2022-11-03T14:21:44;15.60;56.90
488;DHT22;16586;48.976;9.584;2022-11-03T14:24:10;15.50;57.20
488;DHT22;16586;48.976;9.584;2022-11-03T14:26:37;15.50;57.00
488;DHT22;16586;48.976;9.584;2022-11-03T14:29:04;15.50;57.10
488;DHT22;16586;48.976;9.584;2022-11-03T14:31:31;15.50;57.50
488;DHT22;16586;48.976;9.584;2022-11-03T14:33:58;15.40;57.20
488;DHT22;16586;48.976;9.584;2022-11-03T14:36:26;15.40;57.60
488;DHT22;16586;48.976;9.584;2022-11-03T14:38:53;15.30;57.80
488;DHT22;16586;48.976;9.584;2022-11-03T14:41:20;15.30;57.70
488;DHT22;16586;48.976;9.584;2022-11-03T14:44:05;15.20;57.80
488;DHT22;16586;48.976;9.584;2022-11-03T14:46:31;15.20;58.10
488;DHT22;16586;48.976;9.584;2022-11-03T14:48:58;15.10;58.30
488;DHT22;16586;48.976;9.584;2022-11-03T14:51:27;15.20;58.30
488;DHT22;16586;48.976;9.584;2022-11-03T14:53:55;15.10;58.50
488;DHT22;16586;48.976;9.584;2022-11-03T14:56:23;15.10;58.70
488;DHT22;16586;48.976;9.584;2022-11-03T14:58:49;15.00;58.70
488;DHT22;16586;48.976;9.584;2022-11-03T15:01:16;15.00;58.80
488;DHT22;16586;48.976;9.584;2022-11-03T15:03:43;14.90;59.00
488;DHT22;16586;48.976;9.584;2022-11-03T15:06:11;14.80;59.10
488;DHT22;16586;48.976;9.584;2022-11-03T15:08:39;14.80;59.80
488;DHT22;16586;48.976;9.584;2022-11-03T15:11:07;14.80;59.30
488;DHT22;16586;48.976;9.584;2022-11-03T15:13:34;14.80;59.40
488;DHT22;16586;48.976;9.584;2022-11-03T15:16:01;14.80;59.30
488;DHT22;16586;48.976;9.584;2022-11-03T15:18:29;14.80;59.70
488;DHT22;16586;48.976;9.584;2022-11-03T15:20:56;14.70;59.70
488;DHT22;16586;48.976;9.584;2022-11-03T15:23:24;14.70;59.80
488;DHT22;16586;48.976;9.584;2022-11-03T15:25:52;14.60;59.90
488;DHT22;16586;48.976;9.584;2022-11-03T15:28:19;14.60;59.80
488;DHT22;16586;48.976;9.584;2022-11-03T15:30:46;14.60;59.90
488;DHT22;16586;48.976;9.584;2022-11-03T15:33:13;14.50;60.20
488;DHT22;16586;48.976;9.584;2022-11-03T15:35:40;14.50;60.10
488;DHT22;16586;48.976;9.584;2022-11-03T15:38:07;14.40;60.20
488;DHT22;16586;48.976;9.584;2022-11-03T15:40:34;14.40;60.40
488;DHT22;16586;48.976;9.584;2022-11-03T15:43:02;14.30;60.80
488;DHT22;16586;48.976;9.584;2022-11-03T15:45:30;14.30;61.00
488;DHT22;16586;48.976;9.584;2022-11-03T15:47:58;14.30;60.90
488;DHT22;16586;48.976;9.584;2022-11-03T15:50:25;14.20;60.90
488;DHT22;16586;48.976;9.584;2022-11-03T15:52:53;14.10;61.00
488;DHT22;16586;48.976;9.584;2022-11-03T15:55:20;14.10;61.40
488;DHT22;16586;48.976;9.584;2022-11-03T15:57:47;14.10;61.20
488;DHT22;16586;48.976;9.584;2022-11-03T16:00:16;14.00;61.30
488;DHT22;16586;48.976;9.584;2022-11-03T16:02:44;14.00;61.70
488;DHT22;16586;48.976;9.584;2022-11-03T16:05:12;14.00;62.00
488;DHT22;16586;48.976;9.584;2022-11-03T16:07:39;14.00;62.00
488;DHT22;16586;48.976;9.584;2022-11-03T16:10:06;13.90;62.20
488;DHT22;16586;48.976;9.584;2022-11-03T16:12:33;14.00;62.30
488;DHT22;16586;48.976;9.584;2022-11-03T16:15:02;13.90;62.20
488;DHT22;16586;48.976;9.584;2022-11-03T16:17:30;13.90;62.40
488;DHT22;16586;48.976;9.584;2022-11-03T16:19:57;13.90;62.30
488;DHT22;16586;48.976;9.584;2022-11-03T16:22:24;13.90;62.70
488;DHT22;16586;48.976;9.584;2022-11-03T16:24:51;13.90;62.90
488;DHT22;16586;48.976;9.584;2022-11-03T16:27:17;13.90;62.90
488;DHT22;16586;48.976;9.584;2022-11-03T16:29:44;13.90;62.90